sensor_id;sensor_type;location;lat;lon;timestamp;P1;durP1;ratioP1;P2;durP2;ratioP2
64110;SDS011;50401;48.188;11.566;2023-02-11T00:01:24;65.10;;;26.17;;
64110;SDS011;50401;48.188;11.566;2023-02-11T00:03:50;63.70;;;23.55;;
64110;SDS011;50401;48.188;11.566;2023-02-11T00:06:15;59.45;;;25.65;;
64110;SDS011;50401;48.188;11.566;2023-02-11T00:08:41;59.85;;;25.23;;
64110;SDS011;50401;48.188;11.566;2023-02-11T00:11:14;63.03;;;27.42;;
64110;SDS011;50401;48.188;11.566;2023-02-11T00:13:43;64.32;;;26.40;;
64110;SDS011;50401;48.188;11.566;2023-02-11T00:16:10;72.35;;;27.33;;
64110;SDS011;50401;48.188;11.566;2023-02-11T00:18:40;63.67;;;25.45;;
64110;SDS011;50401;48.188;11.566;2023-02-11T00:21:13;65.43;;;27.70;;
64110;SDS011;50401;48.188;11.566;2023-02-11T00:23:40;67.72;;;26.10;;
64110;SDS011;50401;48.188;11.566;2023-02-11T00:26:17;67.18;;;26.65;;
64110;SDS011;50401;48.188;11.566;2023-02-11T00:28:50;62.53;;;27.73;;
64110;SDS011;50401;48.188;11.566;2023-02-11T00:31:17;71.90;;;27.60;;
64110;SDS011;50401;48.188;11.566;2023-02-11T00:33:43;75.88;;;30.58;;
64110;SDS011;50401;48.188;11.566;2023-02-11T00:36:14;65.18;;;28.92;;
64110;SDS011;50401;48.188;11.566;2023-02-11T00:38:44;73.40;;;29.58;;
64110;SDS011;50401;48.188;11.566;2023-02-11T00:41:12;75.40;;;30.08;;
64110;SDS011;50401;48.188;11.566;2023-02-11T00:43:38;78.28;;;30.05;;
64110;SDS011;50401;48.188;11.566;2023-02-11T00:46:05;72.45;;;28.55;;
64110;SDS011;50401;48.188;11.566;2023-02-11T00:48:30;79.90;;;30.30;;
64110;SDS011;50401;48.188;11.566;2023-02-11T00:50:56;74.82;;;29.23;;
64110;SDS011;50401;48.188;11.566;2023-02-11T00:53:21;71.85;;;29.20;;
64110;SDS011;50401;48.188;11.566;2023-02-11T00:55:47;72.15;;;28.33;;
64110;SDS011;50401;48.188;11.566;2023-02-11T00:58:12;65.03;;;25.02;;
64110;SDS011;50401;48.188;11.566;2023-02-11T01:00:38;59.55;;;24.80;;
64110;SDS011;50401;48.188;11.566;2023-02-11T01:03:03;63.55;;;26.10;;
64110;SDS011;50401;48.188;11.566;2023-02-11T01:05:28;60.70;;;23.75;;
64110;SDS011;50401;48.188;11.566;2023-02-11T01:07:54;56.97;;;24.95;;
64110;SDS011;50401;48.188;11.566;2023-02-11T01:10:19;67.32;;;25.65;;
64110;SDS011;50401;48.188;11.566;2023-02-11T01:12:45;64.10;;;26.45;;
64110;SDS011;50401;48.188;11.566;2023-02-11T01:15:13;69.50;;;27.60;;
64110;SDS011;50401;48.188;11.566;2023-02-11T01:17:39;70.30;;;26.92;;
64110;SDS011;50401;48.188;11.566;2023-02-11T01:20:06;72.22;;;27.42;;
64110;SDS011;50401;48.188;11.566;2023-02-11T01:22:33;67.57;;;28.13;;
64110;SDS011;50401;48.188;11.566;2023-02-11T01:25:01;68.93;;;27.48;;
64110;SDS011;50401;48.188;11.566;2023-02-11T01:27:27;67.50;;;27.92;;
64110;SDS011;50401;48.188;11.566;2023-02-11T01:29:52;66.30;;;26.77;;
64110;SDS011;50401;48.188;11.566;2023-02-11T01:32:18;71.45;;;28.13;;
64110;SDS011;50401;48.188;11.566;2023-02-11T01:34:43;74.43;;;28.10;;
64110;SDS011;50401;48.188;11.566;2023-02-11T01:37:08;71.65;;;28.45;;
64110;SDS011;50401;48.188;11.566;2023-02-11T01:39:34;63.70;;;26.40;;
64110;SDS011;50401;48.188;11.566;2023-02-11T01:42:00;72.32;;;28.00;;
64110;SDS011;50401;48.188;11.566;2023-02-11T01:44:27;71.68;;;27.42;;
64110;SDS011;50401;48.188;11.566;2023-02-11T01:46:58;57.95;;;24.15;;
64110;SDS011;50401;48.188;11.566;2023-02-11T01:49:26;52.83;;;23.35;;
64110;SDS011;50401;48.188;11.566;2023-02-11T01:52:00;58.05;;;21.55;;
64110;SDS011;50401;48.188;11.566;2023-02-11T01:54:52;52.35;;;20.55;;
64110;SDS011;50401;48.188;11.566;2023-02-11T01:57:43;54.40;;;21.10;;
64110;SDS011;50401;48.188;11.566;2023-02-11T02:02:42;64.10;;;22.15;;
64110;SDS011;50401;48.188;11.566;2023-02-11T02:07:43;51.13;;;20.60;;
64110;SDS011;50401;48.188;11.566;2023-02-11T02:10:13;47.95;;;19.73;;
64110;SDS011;50401;48.188;11.566;2023-02-11T02:12:43;61.25;;;23.27;;
64110;SDS011;50401;48.188;11.566;2023-02-11T02:15:28;60.92;;;22.70;;
64110;SDS011;50401;48.188;11.566;2023-02-11T02:17:58;76.65;;;25.42;;
64110;SDS011;50401;48.188;11.566;2023-02-11T02:23:22;71.05;;;27.08;;
64110;SDS011;50401;48.188;11.566;2023-02-11T02:29:10;64.53;;;25.52;;
64110;SDS011;50401;48.188;11.566;2023-02-11T02:31:56;66.38;;;28.42;;
64110;SDS011;50401;48.188;11.566;2023-02-11T02:34:52;60.88;;;23.80;;
64110;SDS011;50401;48.188;11.566;2023-02-11T02:40:20;63.58;;;24.48;;
64110;SDS011;50401;48.188;11.566;2023-02-11T02:42:59;60.33;;;24.00;;
64110;SDS011;50401;48.188;11.566;2023-02-11T02:45:26;73.38;;;25.88;;
64110;SDS011;50401;48.188;11.566;2023-02-11T02:47:51;64.70;;;23.05;;
64110;SDS011;50401;48.188;11.566;2023-02-11T02:50:18;67.60;;;25.50;;
64110;SDS011;50401;48.188;11.566;2023-02-11T02:55:23;58.05;;;23.95;;
64110;SDS011;50401;48.188;11.566;2023-02-11T02:58:01;65.85;;;23.25;;
64110;SDS011;50401;48.188;11.566;2023-02-11T03:03:07;60.35;;;24.35;;
64110;SDS011;50401;48.188;11.566;2023-02-11T03:08:49;56.80;;;22.42;;
64110;SDS011;50401;48.188;11.566;2023-02-11T03:11:19;68.88;;;22.92;;
64110;SDS011;50401;48.188;11.566;2023-02-11T03:13:45;53.53;;;21.52;;
64110;SDS011;50401;48.188;11.566;2023-02-11T03:16:14;54.75;;;22.30;;
64110;SDS011;50401;48.188;11.566;2023-02-11T03:18:45;50.53;;;21.60;;
64110;SDS011;50401;48.188;11.566;2023-02-11T03:21:15;64.53;;;22.92;;
64110;SDS011;50401;48.188;11.566;2023-02-11T03:23:49;53.90;;;21.00;;
64110;SDS011;50401;48.188;11.566;2023-02-11T03:26:31;60.03;;;22.95;;
64110;SDS011;50401;48.188;11.566;2023-02-11T03:37:59;52.20;;;21.35;;
64110;SDS011;50401;48.188;11.566;2023-02-11T03:40:30;59.83;;;22.08;;
64110;SDS011;50401;48.188;11.566;2023-02-11T03:43:00;61.03;;;22.70;;
64110;SDS011;50401;48.188;11.566;2023-02-11T03:45:30;56.25;;;22.83;;
64110;SDS011;50401;48.188;11.566;2023-02-11T03:48:04;56.20;;;21.83;;
64110;SDS011;50401;48.188;11.566;2023-02-11T03:50:35;66.10;;;23.08;;
64110;SDS011;50401;48.188;11.566;2023-02-11T03:53:02;59.53;;;21.77;;
64110;SDS011;50401;48.188;11.566;2023-02-11T03:55:29;53.90;;;20.92;;
64110;SDS011;50401;48.188;11.566;2023-02-11T03:57:57;57.03;;;22.48;;
64110;SDS011;50401;48.188;11.566;2023-02-11T04:00:36;57.40;;;22.27;;
64110;SDS011;50401;48.188;11.566;2023-02-11T04:03:03;53.97;;;20.58;;
64110;SDS011;50401;48.188;11.566;2023-02-11T04:05:29;60.53;;;22.25;;
64110;SDS011;50401;48.188;11.566;2023-02-11T04:07:55;59.63;;;22.88;;
64110;SDS011;50401;48.188;11.566;2023-02-11T04:10:20;67.60;;;22.88;;
64110;SDS011;50401;48.188;11.566;2023-02-11T04:12:46;60.25;;;22.33;;
64110;SDS011;50401;48.188;11.566;2023-02-11T04:15:11;51.83;;;20.73;;
64110;SDS011;50401;48.188;11.566;2023-02-11T04:17:37;51.58;;;18.67;;
64110;SDS011;50401;48.188;11.566;2023-02-11T04:20:03;49.75;;;19.88;;
64110;SDS011;50401;48.188;11.566;2023-02-11T04:22:28;52.45;;;18.85;;
64110;SDS011;50401;48.188;11.566;2023-02-11T04:24:54;47.38;;;18.02;;
64110;SDS011;50401;48.188;11.566;2023-02-11T04:27:20;48.40;;;18.08;;
64110;SDS011;50401;48.188;11.566;2023-02-11T04:29:45;41.40;;;16.42;;
64110;SDS011;50401;48.188;11.566;2023-02-11T04:32:10;45.90;;;16.92;;
64110;SDS011;50401;48.188;11.566;2023-02-11T04:34:36;48.72;;;17.67;;
64110;SDS011;50401;48.188;11.566;2023-02-11T04:37:01;51.25;;;20.42;;
64110;SDS011;50401;48.188;11.566;2023-02-11T04:39:27;49.00;;;18.20;;
64110;SDS011;50401;48.188;11.566;2023-02-11T04:41:52;43.35;;;16.88;;
64110;SDS011;50401;48.188;11.566;2023-02-11T04:44:17;38.03;;;14.88;;
64110;SDS011;50401;48.188;11.566;2023-02-11T04:46:43;35.90;;;14.15;;
64110;SDS011;50401;48.188;11.566;2023-02-11T04:49:10;35.22;;;13.27;;
64110;SDS011;50401;48.188;11.566;2023-02-11T04:51:37;41.78;;;16.35;;
64110;SDS011;50401;48.188;11.566;2023-02-11T04:54:03;38.47;;;15.15;;
64110;SDS011;50401;48.188;11.566;2023-02-11T04:56:28;40.45;;;16.05;;
64110;SDS011;50401;48.188;11.566;2023-02-11T04:58:54;34.53;;;14.85;;
64110;SDS011;50401;48.188;11.566;2023-02-11T05:01:19;40.10;;;17.48;;
64110;SDS011;50401;48.188;11.566;2023-02-11T05:03:44;41.75;;;16.40;;
64110;SDS011;50401;48.188;11.566;2023-02-11T05:06:10;42.00;;;16.88;;
64110;SDS011;50401;48.188;11.566;2023-02-11T05:08:36;44.75;;;16.27;;
64110;SDS011;50401;48.188;11.566;2023-02-11T05:11:01;43.90;;;17.48;;
64110;SDS011;50401;48.188;11.566;2023-02-11T05:13:27;47.63;;;16.48;;
64110;SDS011;50401;48.188;11.566;2023-02-11T05:15:53;43.63;;;16.05;;
64110;SDS011;50401;48.188;11.566;2023-02-11T05:18:18;41.35;;;17.00;;
64110;SDS011;50401;48.188;11.566;2023-02-11T05:20:44;59.03;;;17.40;;
64110;SDS011;50401;48.188;11.566;2023-02-11T05:23:09;45.55;;;16.20;;
64110;SDS011;50401;48.188;11.566;2023-02-11T05:25:35;38.83;;;16.00;;
64110;SDS011;50401;48.188;11.566;2023-02-11T05:28:01;40.35;;;15.07;;
64110;SDS011;50401;48.188;11.566;2023-02-11T05:30:27;40.00;;;15.43;;
64110;SDS011;50401;48.188;11.566;2023-02-11T05:32:52;43.15;;;15.43;;
64110;SDS011;50401;48.188;11.566;2023-02-11T05:35:17;45.08;;;16.55;;
64110;SDS011;50401;48.188;11.566;2023-02-11T05:37:43;39.28;;;15.75;;
64110;SDS011;50401;48.188;11.566;2023-02-11T05:40:08;38.97;;;17.00;;
64110;SDS011;50401;48.188;11.566;2023-02-11T05:42:34;42.58;;;17.08;;
64110;SDS011;50401;48.188;11.566;2023-02-11T05:45:00;45.65;;;18.02;;
64110;SDS011;50401;48.188;11.566;2023-02-11T05:47:25;46.58;;;17.75;;
64110;SDS011;50401;48.188;11.566;2023-02-11T05:49:51;46.50;;;17.55;;
64110;SDS011;50401;48.188;11.566;2023-02-11T05:52:17;52.42;;;19.08;;
64110;SDS011;50401;48.188;11.566;2023-02-11T05:54:43;53.72;;;19.30;;
64110;SDS011;50401;48.188;11.566;2023-02-11T05:57:09;50.17;;;19.77;;
64110;SDS011;50401;48.188;11.566;2023-02-11T05:59:34;59.42;;;19.48;;
64110;SDS011;50401;48.188;11.566;2023-02-11T06:01:59;51.95;;;19.20;;
64110;SDS011;50401;48.188;11.566;2023-02-11T06:04:25;51.15;;;19.20;;
64110;SDS011;50401;48.188;11.566;2023-02-11T06:06:50;51.22;;;18.92;;
64110;SDS011;50401;48.188;11.566;2023-02-11T06:09:15;54.22;;;20.30;;
64110;SDS011;50401;48.188;11.566;2023-02-11T06:11:41;53.50;;;19.48;;
64110;SDS011;50401;48.188;11.566;2023-02-11T06:14:06;55.72;;;19.60;;
64110;SDS011;50401;48.188;11.566;2023-02-11T06:16:32;46.10;;;17.88;;
64110;SDS011;50401;48.188;11.566;2023-02-11T06:18:57;50.95;;;18.33;;
64110;SDS011;50401;48.188;11.566;2023-02-11T06:21:22;45.13;;;19.42;;
64110;SDS011;50401;48.188;11.566;2023-02-11T06:23:48;52.30;;;19.25;;
64110;SDS011;50401;48.188;11.566;2023-02-11T06:26:17;47.47;;;17.35;;
64110;SDS011;50401;48.188;11.566;2023-02-11T06:28:44;39.58;;;14.90;;
64110;SDS011;50401;48.188;11.566;2023-02-11T06:31:10;36.85;;;15.02;;
64110;SDS011;50401;48.188;11.566;2023-02-11T06:33:36;39.70;;;14.95;;
64110;SDS011;50401;48.188;11.566;2023-02-11T06:36:02;39.25;;;15.60;;
64110;SDS011;50401;48.188;11.566;2023-02-11T06:38:29;39.67;;;14.25;;
64110;SDS011;50401;48.188;11.566;2023-02-11T06:40:54;40.83;;;14.25;;
64110;SDS011;50401;48.188;11.566;2023-02-11T06:43:20;39.20;;;14.57;;
64110;SDS011;50401;48.188;11.566;2023-02-11T06:45:50;57.50;;;16.35;;
64110;SDS011;50401;48.188;11.566;2023-02-11T06:48:17;43.08;;;16.58;;
64110;SDS011;50401;48.188;11.566;2023-02-11T06:50:42;48.95;;;17.65;;
64110;SDS011;50401;48.188;11.566;2023-02-11T06:53:07;47.13;;;17.00;;
64110;SDS011;50401;48.188;11.566;2023-02-11T06:55:33;47.65;;;16.33;;
64110;SDS011;50401;48.188;11.566;2023-02-11T06:57:59;46.00;;;15.98;;
64110;SDS011;50401;48.188;11.566;2023-02-11T07:00:24;42.45;;;16.95;;
64110;SDS011;50401;48.188;11.566;2023-02-11T07:02:50;50.22;;;15.52;;
64110;SDS011;50401;48.188;11.566;2023-02-11T07:05:16;40.88;;;15.10;;
64110;SDS011;50401;48.188;11.566;2023-02-11T07:07:41;38.80;;;16.40;;
64110;SDS011;50401;48.188;11.566;2023-02-11T07:10:07;45.22;;;15.02;;
64110;SDS011;50401;48.188;11.566;2023-02-11T07:12:32;48.88;;;15.52;;
64110;SDS011;50401;48.188;11.566;2023-02-11T07:14:58;39.67;;;15.38;;
64110;SDS011;50401;48.188;11.566;2023-02-11T07:17:23;34.97;;;14.15;;
64110;SDS011;50401;48.188;11.566;2023-02-11T07:19:49;41.47;;;15.20;;
64110;SDS011;50401;48.188;11.566;2023-02-11T07:22:14;45.55;;;15.77;;
64110;SDS011;50401;48.188;11.566;2023-02-11T07:24:40;57.65;;;17.02;;
64110;SDS011;50401;48.188;11.566;2023-02-11T07:27:05;53.67;;;17.77;;
64110;SDS011;50401;48.188;11.566;2023-02-11T07:29:31;52.83;;;18.23;;
64110;SDS011;50401;48.188;11.566;2023-02-11T07:31:57;66.75;;;18.13;;
64110;SDS011;50401;48.188;11.566;2023-02-11T07:34:22;62.78;;;18.52;;
64110;SDS011;50401;48.188;11.566;2023-02-11T07:36:48;61.58;;;16.67;;
64110;SDS011;50401;48.188;11.566;2023-02-11T07:39:13;58.17;;;15.88;;
64110;SDS011;50401;48.188;11.566;2023-02-11T07:41:39;59.53;;;19.73;;
64110;SDS011;50401;48.188;11.566;2023-02-11T07:44:04;74.53;;;20.17;;
64110;SDS011;50401;48.188;11.566;2023-02-11T07:46:30;52.50;;;16.17;;
64110;SDS011;50401;48.188;11.566;2023-02-11T07:48:56;59.92;;;16.23;;
64110;SDS011;50401;48.188;11.566;2023-02-11T07:51:25;50.85;;;18.33;;
64110;SDS011;50401;48.188;11.566;2023-02-11T07:53:52;61.60;;;17.33;;
64110;SDS011;50401;48.188;11.566;2023-02-11T07:56:19;54.95;;;18.35;;
64110;SDS011;50401;48.188;11.566;2023-02-11T07:58:46;87.40;;;18.60;;
64110;SDS011;50401;48.188;11.566;2023-02-11T08:01:13;65.65;;;18.10;;
64110;SDS011;50401;48.188;11.566;2023-02-11T08:03:40;80.65;;;19.70;;
64110;SDS011;50401;48.188;11.566;2023-02-11T08:06:07;67.68;;;18.33;;
64110;SDS011;50401;48.188;11.566;2023-02-11T08:08:35;145.65;;;19.58;;
64110;SDS011;50401;48.188;11.566;2023-02-11T08:11:05;82.47;;;18.08;;
64110;SDS011;50401;48.188;11.566;2023-02-11T08:13:32;130.27;;;19.27;;
64110;SDS011;50401;48.188;11.566;2023-02-11T08:15:57;140.57;;;20.27;;
64110;SDS011;50401;48.188;11.566;2023-02-11T08:18:23;141.68;;;20.40;;
64110;SDS011;50401;48.188;11.566;2023-02-11T08:20:48;139.80;;;20.58;;
64110;SDS011;50401;48.188;11.566;2023-02-11T08:23:14;55.65;;;15.15;;
64110;SDS011;50401;48.188;11.566;2023-02-11T08:25:39;92.45;;;16.85;;
64110;SDS011;50401;48.188;11.566;2023-02-11T08:28:04;57.05;;;15.82;;
64110;SDS011;50401;48.188;11.566;2023-02-11T08:30:30;158.68;;;19.15;;
64110;SDS011;50401;48.188;11.566;2023-02-11T08:32:56;159.60;;;19.88;;
64110;SDS011;50401;48.188;11.566;2023-02-11T08:35:21;94.55;;;18.08;;
64110;SDS011;50401;48.188;11.566;2023-02-11T08:37:47;101.00;;;17.17;;
64110;SDS011;50401;48.188;11.566;2023-02-11T08:40:12;157.88;;;28.20;;
64110;SDS011;50401;48.188;11.566;2023-02-11T08:42:38;142.30;;;23.02;;
64110;SDS011;50401;48.188;11.566;2023-02-11T08:45:07;189.52;;;23.23;;
64110;SDS011;50401;48.188;11.566;2023-02-11T08:47:32;129.43;;;22.00;;
64110;SDS011;50401;48.188;11.566;2023-02-11T08:49:57;128.20;;;19.45;;
64110;SDS011;50401;48.188;11.566;2023-02-11T08:52:23;124.03;;;21.98;;
64110;SDS011;50401;48.188;11.566;2023-02-11T08:54:48;213.38;;;27.05;;
64110;SDS011;50401;48.188;11.566;2023-02-11T08:57:14;155.20;;;23.92;;
64110;SDS011;50401;48.188;11.566;2023-02-11T08:59:40;107.25;;;20.80;;
64110;SDS011;50401;48.188;11.566;2023-02-11T09:02:05;91.00;;;20.45;;
64110;SDS011;50401;48.188;11.566;2023-02-11T09:04:31;73.22;;;20.05;;
64110;SDS011;50401;48.188;11.566;2023-02-11T09:06:57;80.95;;;20.85;;
64110;SDS011;50401;48.188;11.566;2023-02-11T09:09:22;60.17;;;20.42;;
64110;SDS011;50401;48.188;11.566;2023-02-11T09:11:48;63.55;;;21.10;;
64110;SDS011;50401;48.188;11.566;2023-02-11T09:14:15;94.32;;;21.23;;
64110;SDS011;50401;48.188;11.566;2023-02-11T09:16:45;110.18;;;23.05;;
64110;SDS011;50401;48.188;11.566;2023-02-11T09:19:11;115.25;;;23.95;;
64110;SDS011;50401;48.188;11.566;2023-02-11T09:21:36;61.75;;;20.98;;
64110;SDS011;50401;48.188;11.566;2023-02-11T09:24:02;62.67;;;20.25;;
64110;SDS011;50401;48.188;11.566;2023-02-11T09:26:28;88.03;;;22.67;;
64110;SDS011;50401;48.188;11.566;2023-02-11T09:28:55;127.20;;;24.55;;
64110;SDS011;50401;48.188;11.566;2023-02-11T09:31:22;118.93;;;24.25;;
64110;SDS011;50401;48.188;11.566;2023-02-11T09:33:50;103.82;;;24.20;;
64110;SDS011;50401;48.188;11.566;2023-02-11T09:36:19;108.40;;;23.45;;
64110;SDS011;50401;48.188;11.566;2023-02-11T09:38:46;141.57;;;25.38;;
64110;SDS011;50401;48.188;11.566;2023-02-11T09:43:48;81.50;;;22.08;;
64110;SDS011;50401;48.188;11.566;2023-02-11T09:46:17;85.30;;;22.42;;
64110;SDS011;50401;48.188;11.566;2023-02-11T09:48:44;86.25;;;21.02;;
64110;SDS011;50401;48.188;11.566;2023-02-11T09:51:14;106.40;;;22.08;;
64110;SDS011;50401;48.188;11.566;2023-02-11T09:53:59;127.90;;;25.55;;
64110;SDS011;50401;48.188;11.566;2023-02-11T09:56:29;97.40;;;23.10;;
64110;SDS011;50401;48.188;11.566;2023-02-11T09:58:55;78.72;;;21.50;;
64110;SDS011;50401;48.188;11.566;2023-02-11T10:01:25;62.72;;;21.02;;
64110;SDS011;50401;48.188;11.566;2023-02-11T10:04:05;65.80;;;22.00;;
64110;SDS011;50401;48.188;11.566;2023-02-11T10:06:39;91.50;;;24.65;;
64110;SDS011;50401;48.188;11.566;2023-02-11T10:11:57;116.60;;;23.80;;
64110;SDS011;50401;48.188;11.566;2023-02-11T10:22:48;90.50;;;25.33;;
64110;SDS011;50401;48.188;11.566;2023-02-11T10:25:19;100.53;;;26.55;;
64110;SDS011;50401;48.188;11.566;2023-02-11T10:27:46;92.47;;;23.80;;
64110;SDS011;50401;48.188;11.566;2023-02-11T10:35:38;89.53;;;24.10;;
64110;SDS011;50401;48.188;11.566;2023-02-11T10:38:04;101.78;;;23.88;;
64110;SDS011;50401;48.188;11.566;2023-02-11T10:40:30;91.80;;;23.58;;
64110;SDS011;50401;48.188;11.566;2023-02-11T10:42:56;91.88;;;23.13;;
64110;SDS011;50401;48.188;11.566;2023-02-11T10:47:54;62.83;;;21.85;;
64110;SDS011;50401;48.188;11.566;2023-02-11T10:50:21;86.68;;;22.00;;
64110;SDS011;50401;48.188;11.566;2023-02-11T10:53:27;74.95;;;22.95;;
64110;SDS011;50401;48.188;11.566;2023-02-11T10:55:52;88.75;;;26.42;;
64110;SDS011;50401;48.188;11.566;2023-02-11T10:58:23;120.32;;;24.83;;
64110;SDS011;50401;48.188;11.566;2023-02-11T11:00:52;86.53;;;22.50;;
64110;SDS011;50401;48.188;11.566;2023-02-11T11:03:23;66.28;;;22.88;;
64110;SDS011;50401;48.188;11.566;2023-02-11T11:05:51;79.68;;;23.10;;
64110;SDS011;50401;48.188;11.566;2023-02-11T11:08:20;68.90;;;22.67;;
64110;SDS011;50401;48.188;11.566;2023-02-11T11:11:07;70.38;;;21.67;;
64110;SDS011;50401;48.188;11.566;2023-02-11T11:13:40;96.55;;;23.83;;
64110;SDS011;50401;48.188;11.566;2023-02-11T11:18:47;76.00;;;22.63;;
64110;SDS011;50401;48.188;11.566;2023-02-11T11:21:21;69.32;;;20.40;;
64110;SDS011;50401;48.188;11.566;2023-02-11T11:23:53;84.45;;;22.02;;
64110;SDS011;50401;48.188;11.566;2023-02-11T11:26:22;59.33;;;19.42;;
64110;SDS011;50401;48.188;11.566;2023-02-11T11:28:59;87.85;;;22.67;;
64110;SDS011;50401;48.188;11.566;2023-02-11T11:31:35;75.18;;;20.80;;
64110;SDS011;50401;48.188;11.566;2023-02-11T11:36:47;57.67;;;19.77;;
64110;SDS011;50401;48.188;11.566;2023-02-11T11:39:18;62.53;;;21.05;;
64110;SDS011;50401;48.188;11.566;2023-02-11T11:44:22;63.47;;;23.58;;
64110;SDS011;50401;48.188;11.566;2023-02-11T11:47:10;76.28;;;20.90;;
64110;SDS011;50401;48.188;11.566;2023-02-11T11:50:00;60.47;;;20.23;;
64110;SDS011;50401;48.188;11.566;2023-02-11T11:52:45;74.35;;;20.88;;
64110;SDS011;50401;48.188;11.566;2023-02-11T11:55:17;70.65;;;20.55;;
64110;SDS011;50401;48.188;11.566;2023-02-11T11:57:46;75.68;;;20.38;;
64110;SDS011;50401;48.188;11.566;2023-02-11T12:00:20;75.30;;;20.27;;
64110;SDS011;50401;48.188;11.566;2023-02-11T12:06:05;60.10;;;20.50;;
64110;SDS011;50401;48.188;11.566;2023-02-11T12:11:53;65.15;;;20.23;;
64110;SDS011;50401;48.188;11.566;2023-02-11T12:17:31;59.03;;;19.20;;
64110;SDS011;50401;48.188;11.566;2023-02-11T12:26:11;72.00;;;19.52;;
64110;SDS011;50401;48.188;11.566;2023-02-11T12:29:30;60.60;;;19.20;;
64110;SDS011;50401;48.188;11.566;2023-02-11T12:42:32;51.47;;;19.42;;
64110;SDS011;50401;48.188;11.566;2023-02-11T12:59:13;56.67;;;19.50;;
64110;SDS011;50401;48.188;11.566;2023-02-11T13:01:46;66.28;;;19.60;;
64110;SDS011;50401;48.188;11.566;2023-02-11T13:13:01;73.20;;;19.00;;
64110;SDS011;50401;48.188;11.566;2023-02-11T13:15:41;56.92;;;19.52;;
64110;SDS011;50401;48.188;11.566;2023-02-11T13:26:29;60.63;;;18.27;;
64110;SDS011;50401;48.188;11.566;2023-02-11T13:37:05;45.22;;;14.95;;
64110;SDS011;50401;48.188;11.566;2023-02-11T13:40:27;41.55;;;14.35;;
64110;SDS011;50401;48.188;11.566;2023-02-11T13:42:50;53.72;;;16.30;;
64110;SDS011;50401;48.188;11.566;2023-02-11T13:45:17;39.90;;;15.43;;
64110;SDS011;50401;48.188;11.566;2023-02-11T13:47:59;57.80;;;16.30;;
64110;SDS011;50401;48.188;11.566;2023-02-11T13:50:28;46.30;;;14.40;;
64110;SDS011;50401;48.188;11.566;2023-02-11T13:53:02;42.70;;;14.80;;
64110;SDS011;50401;48.188;11.566;2023-02-11T13:55:32;61.45;;;15.68;;
64110;SDS011;50401;48.188;11.566;2023-02-11T14:19:43;42.92;;;15.50;;
64110;SDS011;50401;48.188;11.566;2023-02-11T14:22:12;44.17;;;16.20;;
64110;SDS011;50401;48.188;11.566;2023-02-11T14:24:48;48.58;;;16.00;;
64110;SDS011;50401;48.188;11.566;2023-02-11T14:38:19;56.30;;;19.25;;
64110;SDS011;50401;48.188;11.566;2023-02-11T14:43:37;56.50;;;19.65;;
64110;SDS011;50401;48.188;11.566;2023-02-11T14:46:06;72.82;;;22.27;;
64110;SDS011;50401;48.188;11.566;2023-02-11T14:48:33;62.55;;;22.65;;
64110;SDS011;50401;48.188;11.566;2023-02-11T14:51:03;59.78;;;22.55;;
64110;SDS011;50401;48.188;11.566;2023-02-11T14:53:32;59.95;;;22.33;;
64110;SDS011;50401;48.188;11.566;2023-02-11T14:55:59;70.78;;;22.73;;
64110;SDS011;50401;48.188;11.566;2023-02-11T14:58:29;61.72;;;22.80;;
64110;SDS011;50401;48.188;11.566;2023-02-11T15:00:59;85.65;;;29.45;;
64110;SDS011;50401;48.188;11.566;2023-02-11T15:08:46;88.78;;;26.92;;
64110;SDS011;50401;48.188;11.566;2023-02-11T15:11:15;77.63;;;26.00;;
64110;SDS011;50401;48.188;11.566;2023-02-11T15:13:43;74.80;;;25.90;;
64110;SDS011;50401;48.188;11.566;2023-02-11T15:16:14;70.60;;;25.63;;
64110;SDS011;50401;48.188;11.566;2023-02-11T15:18:44;78.05;;;24.70;;
64110;SDS011;50401;48.188;11.566;2023-02-11T15:21:13;71.13;;;27.08;;
64110;SDS011;50401;48.188;11.566;2023-02-11T15:23:53;67.75;;;25.00;;
64110;SDS011;50401;48.188;11.566;2023-02-11T15:26:27;70.82;;;24.95;;
64110;SDS011;50401;48.188;11.566;2023-02-11T15:28:53;58.03;;;24.63;;
64110;SDS011;50401;48.188;11.566;2023-02-11T15:31:20;62.58;;;23.73;;
64110;SDS011;50401;48.188;11.566;2023-02-11T15:33:47;64.65;;;25.50;;
64110;SDS011;50401;48.188;11.566;2023-02-11T15:36:14;68.78;;;24.73;;
64110;SDS011;50401;48.188;11.566;2023-02-11T15:38:41;73.28;;;26.00;;
64110;SDS011;50401;48.188;11.566;2023-02-11T15:41:07;62.75;;;25.42;;
64110;SDS011;50401;48.188;11.566;2023-02-11T15:43:52;69.72;;;24.38;;
64110;SDS011;50401;48.188;11.566;2023-02-11T15:46:19;76.75;;;26.35;;
64110;SDS011;50401;48.188;11.566;2023-02-11T15:48:50;71.05;;;25.23;;
64110;SDS011;50401;48.188;11.566;2023-02-11T15:51:25;73.15;;;26.38;;
64110;SDS011;50401;48.188;11.566;2023-02-11T15:53:58;83.85;;;25.80;;
64110;SDS011;50401;48.188;11.566;2023-02-11T15:56:26;85.50;;;25.95;;
64110;SDS011;50401;48.188;11.566;2023-02-11T15:58:55;88.45;;;24.67;;
64110;SDS011;50401;48.188;11.566;2023-02-11T16:01:28;70.50;;;25.88;;
64110;SDS011;50401;48.188;11.566;2023-02-11T16:03:55;83.43;;;26.67;;
64110;SDS011;50401;48.188;11.566;2023-02-11T16:06:25;78.68;;;24.75;;
64110;SDS011;50401;48.188;11.566;2023-02-11T16:09:00;81.47;;;26.48;;
64110;SDS011;50401;48.188;11.566;2023-02-11T16:16:52;85.45;;;26.13;;
64110;SDS011;50401;48.188;11.566;2023-02-11T16:19:20;87.25;;;28.15;;
64110;SDS011;50401;48.188;11.566;2023-02-11T16:21:47;77.95;;;27.73;;
64110;SDS011;50401;48.188;11.566;2023-02-11T16:24:16;85.43;;;27.23;;
64110;SDS011;50401;48.188;11.566;2023-02-11T16:26:49;79.20;;;25.10;;
64110;SDS011;50401;48.188;11.566;2023-02-11T16:29:38;71.55;;;25.33;;
64110;SDS011;50401;48.188;11.566;2023-02-11T16:34:32;83.13;;;27.10;;
64110;SDS011;50401;48.188;11.566;2023-02-11T16:36:58;81.18;;;27.42;;
64110;SDS011;50401;48.188;11.566;2023-02-11T16:39:28;64.53;;;25.52;;
64110;SDS011;50401;48.188;11.566;2023-02-11T16:41:53;70.30;;;28.15;;
64110;SDS011;50401;48.188;11.566;2023-02-11T16:44:20;86.00;;;28.58;;
64110;SDS011;50401;48.188;11.566;2023-02-11T16:46:45;78.07;;;25.75;;
64110;SDS011;50401;48.188;11.566;2023-02-11T16:49:19;88.00;;;26.38;;
64110;SDS011;50401;48.188;11.566;2023-02-11T16:51:46;63.63;;;25.63;;
64110;SDS011;50401;48.188;11.566;2023-02-11T16:54:14;85.80;;;31.73;;
64110;SDS011;50401;48.188;11.566;2023-02-11T16:56:41;83.07;;;29.67;;
64110;SDS011;50401;48.188;11.566;2023-02-11T16:59:07;88.80;;;29.30;;
64110;SDS011;50401;48.188;11.566;2023-02-11T17:01:32;86.82;;;30.55;;
64110;SDS011;50401;48.188;11.566;2023-02-11T17:03:59;82.22;;;29.67;;
64110;SDS011;50401;48.188;11.566;2023-02-11T17:06:25;77.53;;;27.70;;
64110;SDS011;50401;48.188;11.566;2023-02-11T17:08:51;80.60;;;28.42;;
64110;SDS011;50401;48.188;11.566;2023-02-11T17:11:16;85.55;;;29.08;;
64110;SDS011;50401;48.188;11.566;2023-02-11T17:13:43;109.18;;;36.47;;